Time;durP1;ratioP1;P1;durP2;ratioP2;P2;SDS_P1;SDS_P2;PMS_P1;PMS_P2;Temp;Humidity;BMP_temperature;BMP_pressure;BME280_temperature;BME280_humidity;BME280_pressure;Samples;Min_cycle;Max_cycle;Signal;HPM_P1;HPM_P2
2023/12/04 00:01:59;;;;;;;642.17;63.03;;;;;;;;;;6084372;23;20779;-88
2023/12/04 00:04:26;;;;;;;756.90;75.82;;;;;;;;;;6104809;23;20586;-88
2023/12/04 00:06:53;;;;;;;740.88;74.50;;;;;;;;;;6103734;23;20815;-88
2023/12/04 00:09:20;;;;;;;767.60;77.75;;;;;;;;;;6100729;23;20875;-88
2023/12/04 00:11:47;;;;;;;713.38;72.38;;;;;;;;;;6102617;23;20098;-88
2023/12/04 00:14:13;;;;;;;785.42;80.13;;;;;;;;;;6097454;23;20025;-88
2023/12/04 00:16:40;;;;;;;697.90;67.60;;;;;;;;;;6102974;23;20023;-88
2023/12/04 00:19:07;;;;;;;740.15;75.32;;;;;;;;;;6105223;23;20016;-88
2023/12/04 00:21:33;;;;;;;718.25;72.47;;;;;;;;;;6106995;23;20023;-88
2023/12/04 00:24:01;;;;;;;716.80;71.50;;;;;;;;;;6103825;23;20937;-88
2023/12/04 00:26:27;;;;;;;707.88;70.53;;;;;;;;;;6104626;23;20016;-88
2023/12/04 00:28:54;;;;;;;719.33;73.47;;;;;;;;;;6108089;23;20111;-88
2023/12/04 00:31:20;;;;;;;728.17;73.65;;;;;;;;;;6109591;23;21002;-88
2023/12/04 00:33:48;;;;;;;741.67;74.90;;;;;;;;;;6101554;23;20913;-88
2023/12/04 00:36:14;;;;;;;779.47;80.10;;;;;;;;;;6108110;23;20886;-88
2023/12/04 00:38:41;;;;;;;718.25;73.65;;;;;;;;;;6106031;23;20021;-88
2023/12/04 00:41:08;;;;;;;718.20;72.65;;;;;;;;;;6104872;23;20020;-88
2023/12/04 00:43:35;;;;;;;736.28;75.25;;;;;;;;;;6105384;23;20055;-88
2023/12/04 00:46:02;;;;;;;603.03;59.15;;;;;;;;;;6081018;23;20016;-88
2023/12/04 00:48:29;;;;;;;579.97;57.15;;;;;;;;;;6107827;23;20017;-88
2023/12/04 00:50:57;;;;;;;729.40;73.93;;;;;;;;;;6119266;23;20500;-88
2023/12/04 00:53:23;;;;;;;633.15;63.35;;;;;;;;;;6077929;23;20179;-88
2023/12/04 00:55:50;;;;;;;715.30;72.25;;;;;;;;;;6103212;23;20024;-88
2023/12/04 00:58:17;;;;;;;754.25;76.57;;;;;;;;;;6075168;23;20021;-88
2023/12/04 01:00:43;;;;;;;772.28;78.85;;;;;;;;;;6074658;23;20946;-88
2023/12/04 01:03:10;;;;;;;773.05;80.53;;;;;;;;;;6102704;23;20098;-88
2023/12/04 01:05:36;;;;;;;738.42;74.88;;;;;;;;;;6102399;23;20041;-88
2023/12/04 01:08:03;;;;;;;741.63;75.95;;;;;;;;;;6099045;23;20049;-88
2023/12/04 01:10:30;;;;;;;735.08;73.47;;;;;;;;;;6099210;23;20017;-88
2023/12/04 01:12:56;;;;;;;757.55;77.68;;;;;;;;;;6097464;23;20020;-88
2023/12/04 01:15:23;;;;;;;764.55;78.70;;;;;;;;;;6099550;23;20020;-88
2023/12/04 01:17:50;;;;;;;733.40;74.32;;;;;;;;;;6102332;23;20942;-88
2023/12/04 01:20:17;;;;;;;751.80;77.88;;;;;;;;;;6099331;23;20025;-88
2023/12/04 01:22:44;;;;;;;717.60;72.78;;;;;;;;;;6103457;23;20051;-88
2023/12/04 01:25:42;;;;;;;54.22;16.50;;;;;;;;;;6146601;23;20039;-88
2023/12/04 01:28:09;;;;;;;717.75;73.30;;;;;;;;;;6096968;23;20012;-88
2023/12/04 01:30:35;;;;;;;728.00;73.10;;;;;;;;;;6102431;23;20012;-88
2023/12/04 01:33:02;;;;;;;761.08;77.68;;;;;;;;;;6080536;23;20017;-88
2023/12/04 01:35:29;;;;;;;764.58;79.30;;;;;;;;;;6101264;23;20143;-88
2023/12/04 01:37:56;;;;;;;730.50;74.53;;;;;;;;;;6104333;23;20111;-88
2023/12/04 01:40:23;;;;;;;727.60;74.30;;;;;;;;;;6077898;23;20027;-88
2023/12/04 01:42:50;;;;;;;763.70;78.18;;;;;;;;;;6102492;23;21001;-88
2023/12/04 01:45:17;;;;;;;742.10;76.97;;;;;;;;;;6101327;23;20039;-88
2023/12/04 01:47:44;;;;;;;774.88;80.15;;;;;;;;;;6098734;23;20012;-88
2023/12/04 01:50:14;;;;;;;742.95;76.10;;;;;;;;;;6102346;23;20016;-88
2023/12/04 01:52:41;;;;;;;703.80;71.50;;;;;;;;;;6102721;23;20016;-88
2023/12/04 01:55:09;;;;;;;738.78;74.80;;;;;;;;;;6101923;23;20119;-88
2023/12/04 01:57:35;;;;;;;751.00;77.20;;;;;;;;;;6102459;23;20017;-88
2023/12/04 02:00:02;;;;;;;781.53;81.38;;;;;;;;;;6099679;23;20315;-88
2023/12/04 02:02:37;;;;;;;85.63;18.38;;;;;;;;;;6173919;23;20090;-87
2023/12/04 02:05:06;;;;;;;76.18;15.80;;;;;;;;;;6176851;23;20074;-87
2023/12/04 02:07:33;;;;;;;110.53;18.25;;;;;;;;;;6175840;23;20021;-87
2023/12/04 02:10:00;;;;;;;106.35;16.75;;;;;;;;;;6177258;23;20048;-87
2023/12/04 02:12:27;;;;;;;70.22;15.65;;;;;;;;;;6177313;23;20503;-87
2023/12/04 02:14:53;;;;;;;87.65;17.67;;;;;;;;;;6178093;23;20444;-87
2023/12/04 02:17:20;;;;;;;98.45;18.38;;;;;;;;;;6180155;23;20469;-87
2023/12/04 02:19:47;;;;;;;66.65;14.32;;;;;;;;;;6180958;23;20013;-87
2023/12/04 02:22:14;;;;;;;71.88;15.07;;;;;;;;;;6182244;23;20080;-87
2023/12/04 02:24:40;;;;;;;47.25;12.55;;;;;;;;;;6180497;23;20017;-87
2023/12/04 02:27:27;;;;;;;50.47;11.50;;;;;;;;;;6180943;23;20021;-87
2023/12/04 02:29:58;;;;;;;32.85;11.73;;;;;;;;;;6170949;23;20039;-87
2023/12/04 02:32:30;;;;;;;84.35;14.60;;;;;;;;;;6180013;23;20045;-87
2023/12/04 02:34:57;;;;;;;68.88;13.32;;;;;;;;;;6153305;23;20053;-87
2023/12/04 02:37:25;;;;;;;118.32;17.23;;;;;;;;;;6175114;23;20068;-88
2023/12/04 02:39:55;;;;;;;123.72;14.38;;;;;;;;;;6169738;23;20105;-88
2023/12/04 02:42:24;;;;;;;82.25;11.93;;;;;;;;;;6162429;23;20021;-87
2023/12/04 02:44:51;;;;;;;145.45;15.20;;;;;;;;;;6172398;23;20021;-88
2023/12/04 02:47:18;;;;;;;73.60;11.98;;;;;;;;;;6175311;23;20048;-87
2023/12/04 02:49:45;;;;;;;45.78;9.93;;;;;;;;;;6174775;23;20091;-88
2023/12/04 02:52:11;;;;;;;126.00;14.50;;;;;;;;;;6173340;23;20044;-88
2023/12/04 02:54:38;;;;;;;87.50;12.65;;;;;;;;;;6173720;23;20021;-89
2023/12/04 02:57:08;;;;;;;63.83;10.23;;;;;;;;;;6171552;23;20021;-87
2023/12/04 02:59:34;;;;;;;80.18;9.63;;;;;;;;;;6177509;23;20159;-87
2023/12/04 03:02:01;;;;;;;79.65;12.10;;;;;;;;;;6176731;23;20124;-88
2023/12/04 03:04:29;;;;;;;57.38;12.02;;;;;;;;;;6178993;23;20017;-87
2023/12/04 03:06:56;;;;;;;51.88;10.80;;;;;;;;;;6175930;23;20027;-88
2023/12/04 03:09:23;;;;;;;52.50;10.73;;;;;;;;;;6180355;23;20023;-88
2023/12/04 03:12:10;;;;;;;52.08;10.82;;;;;;;;;;6179058;23;20027;-88
2023/12/04 03:14:36;;;;;;;78.35;11.68;;;;;;;;;;6180053;23;20024;-87
2023/12/04 03:17:03;;;;;;;196.63;21.10;;;;;;;;;;6161275;23;20028;-88
2023/12/04 03:19:30;;;;;;;142.25;16.83;;;;;;;;;;6164248;23;20984;-87
2023/12/04 03:21:57;;;;;;;95.68;14.05;;;;;;;;;;6164952;23;20095;-87
2023/12/04 03:24:24;;;;;;;127.03;15.02;;;;;;;;;;6163682;23;20120;-88
2023/12/04 03:26:50;;;;;;;236.75;23.05;;;;;;;;;;6157699;23;20021;-88
2023/12/04 03:29:17;;;;;;;68.88;12.02;;;;;;;;;;6172799;23;20021;-87
2023/12/04 03:31:44;;;;;;;80.82;12.85;;;;;;;;;;6173759;23;20768;-88
2023/12/04 03:34:10;;;;;;;178.50;19.77;;;;;;;;;;6164448;23;20033;-86
2023/12/04 03:36:37;;;;;;;110.93;15.85;;;;;;;;;;6171689;23;20028;-88
2023/12/04 03:39:04;;;;;;;129.35;17.30;;;;;;;;;;6159169;23;20404;-87
2023/12/04 03:41:31;;;;;;;185.10;21.98;;;;;;;;;;6163086;23;20020;-86
2023/12/04 03:43:58;;;;;;;154.38;18.67;;;;;;;;;;6164083;23;20488;-87
2023/12/04 03:46:25;;;;;;;134.32;18.10;;;;;;;;;;6158004;23;20042;-87
2023/12/04 03:48:52;;;;;;;170.52;20.30;;;;;;;;;;6166415;23;20016;-87
2023/12/04 03:51:19;;;;;;;97.78;16.50;;;;;;;;;;6167093;23;20021;-87
2023/12/04 03:53:45;;;;;;;118.53;17.83;;;;;;;;;;6165577;23;20048;-87
2023/12/04 03:56:12;;;;;;;301.50;29.23;;;;;;;;;;6167552;23;20079;-88
2023/12/04 03:58:39;;;;;;;101.18;15.25;;;;;;;;;;6167581;23;20099;-86
2023/12/04 04:01:06;;;;;;;115.25;15.90;;;;;;;;;;6139028;23;20523;-88
2023/12/04 04:03:33;;;;;;;95.85;13.98;;;;;;;;;;6171519;23;20017;-87
2023/12/04 04:06:00;;;;;;;85.65;13.85;;;;;;;;;;6178623;23;20381;-87
2023/12/04 04:08:26;;;;;;;77.60;13.00;;;;;;;;;;6153890;23;20051;-87
2023/12/04 04:10:53;;;;;;;86.20;14.02;;;;;;;;;;6178114;23;20461;-87
2023/12/04 04:13:20;;;;;;;69.70;12.20;;;;;;;;;;6179989;23;20013;-87
2023/12/04 04:15:46;;;;;;;58.80;12.38;;;;;;;;;;6178969;23;20546;-87
2023/12/04 04:18:13;;;;;;;172.23;18.85;;;;;;;;;;6165163;23;20021;-88
2023/12/04 04:20:40;;;;;;;130.05;15.18;;;;;;;;;;6168773;23;20084;-87
2023/12/04 04:23:07;;;;;;;129.05;15.02;;;;;;;;;;6169786;23;20910;-88
2023/12/04 04:25:33;;;;;;;99.40;14.02;;;;;;;;;;6169460;23;20071;-88
2023/12/04 04:28:00;;;;;;;96.18;15.18;;;;;;;;;;6174942;23;20063;-87
2023/12/04 04:30:27;;;;;;;92.18;15.25;;;;;;;;;;6174522;23;20500;-88
2023/12/04 04:32:53;;;;;;;175.60;18.80;;;;;;;;;;6159696;23;20031;-87
2023/12/04 04:35:20;;;;;;;175.23;18.63;;;;;;;;;;6167298;23;20027;-88
2023/12/04 04:37:46;;;;;;;214.27;23.30;;;;;;;;;;6151982;23;20021;-91
2023/12/04 04:40:17;;;;;;;300.13;29.70;;;;;;;;;;6117151;23;20025;-90
2023/12/04 04:42:43;;;;;;;339.35;32.35;;;;;;;;;;6139323;23;20013;-90
2023/12/04 04:45:10;;;;;;;343.63;33.05;;;;;;;;;;6132788;23;20017;-91
2023/12/04 04:47:37;;;;;;;242.75;25.95;;;;;;;;;;6141195;23;20024;-88
2023/12/04 04:50:04;;;;;;;231.82;24.75;;;;;;;;;;6149943;23;20080;-88
2023/12/04 04:52:31;;;;;;;109.07;16.88;;;;;;;;;;6164597;23;20091;-87
2023/12/04 04:54:58;;;;;;;100.45;16.70;;;;;;;;;;6168260;23;20449;-87
2023/12/04 04:57:25;;;;;;;239.52;25.73;;;;;;;;;;6157929;23;20080;-88
2023/12/04 04:59:51;;;;;;;145.32;19.75;;;;;;;;;;6157491;23;20017;-88
2023/12/04 05:02:18;;;;;;;199.45;23.75;;;;;;;;;;6152456;23;20776;-87
2023/12/04 05:04:45;;;;;;;259.30;28.38;;;;;;;;;;6157042;23;20021;-88
2023/12/04 05:07:12;;;;;;;195.23;23.95;;;;;;;;;;6154021;23;20021;-88
2023/12/04 05:09:39;;;;;;;157.05;22.42;;;;;;;;;;6152639;23;20775;-89
2023/12/04 05:12:06;;;;;;;281.05;31.65;;;;;;;;;;6150974;23;20044;-88
2023/12/04 05:14:33;;;;;;;190.85;23.50;;;;;;;;;;6148905;23;20021;-88
2023/12/04 05:17:00;;;;;;;417.23;40.05;;;;;;;;;;6154765;23;20272;-88
2023/12/04 05:19:26;;;;;;;421.40;40.30;;;;;;;;;;6139274;23;20021;-89
2023/12/04 05:21:53;;;;;;;419.23;41.15;;;;;;;;;;6122825;23;20783;-88
2023/12/04 05:24:20;;;;;;;376.75;37.60;;;;;;;;;;6125354;23;20021;-88
2023/12/04 05:26:47;;;;;;;257.67;29.08;;;;;;;;;;6139051;23;20604;-89
2023/12/04 05:29:13;;;;;;;330.08;34.45;;;;;;;;;;6140750;23;20796;-88
2023/12/04 05:31:40;;;;;;;131.90;19.70;;;;;;;;;;6154009;23;20017;-88
2023/12/04 05:34:07;;;;;;;360.60;37.55;;;;;;;;;;6153991;23;20013;-88
2023/12/04 05:36:34;;;;;;;650.47;64.40;;;;;;;;;;6105506;23;20986;-87
2023/12/04 05:39:00;;;;;;;742.65;74.18;;;;;;;;;;6084063;23;20032;-90
2023/12/04 05:41:27;;;;;;;670.30;67.70;;;;;;;;;;6097221;23;20048;-88
2023/12/04 05:43:54;;;;;;;773.85;77.72;;;;;;;;;;6068585;23;20021;-82
2023/12/04 05:46:20;;;;;;;754.17;76.90;;;;;;;;;;6065579;23;21116;-87
2023/12/04 05:48:47;;;;;;;717.17;72.50;;;;;;;;;;6070472;23;20021;-87
2023/12/04 05:51:15;;;;;;;723.10;73.18;;;;;;;;;;6066348;23;20021;-87
2023/12/04 05:53:42;;;;;;;738.53;74.07;;;;;;;;;;6064871;23;20016;-87
2023/12/04 05:56:08;;;;;;;814.17;82.63;;;;;;;;;;6061985;23;20844;-88
2023/12/04 05:58:36;;;;;;;753.13;75.03;;;;;;;;;;6062112;23;20933;-86
2023/12/04 06:01:03;;;;;;;858.65;87.53;;;;;;;;;;6048047;23;21234;-87
2023/12/04 06:03:30;;;;;;;811.00;82.10;;;;;;;;;;6045709;23;20899;-89
2023/12/04 06:05:56;;;;;;;838.38;84.95;;;;;;;;;;6038924;23;20723;-89
2023/12/04 06:08:26;;;;;;;968.55;101.35;;;;;;;;;;6034274;23;20017;-88
2023/12/04 06:10:53;;;;;;;923.22;96.45;;;;;;;;;;6054419;23;21132;-90
2023/12/04 06:13:19;;;;;;;863.78;90.70;;;;;;;;;;6040000;23;20022;-91
2023/12/04 06:15:46;;;;;;;761.65;77.75;;;;;;;;;;6045170;23;20013;-90
2023/12/04 06:18:13;;;;;;;754.42;77.68;;;;;;;;;;6065422;23;20017;-91
2023/12/04 06:20:40;;;;;;;772.28;78.43;;;;;;;;;;6079512;23;20081;-89
2023/12/04 06:23:06;;;;;;;768.85;77.78;;;;;;;;;;6063307;23;20017;-89
2023/12/04 06:25:33;;;;;;;790.10;80.03;;;;;;;;;;6065220;23;20025;-91
2023/12/04 06:28:00;;;;;;;760.10;78.50;;;;;;;;;;6065937;23;20023;-90
2023/12/04 06:30:27;;;;;;;796.45;80.38;;;;;;;;;;6071812;23;20021;-89
2023/12/04 06:32:54;;;;;;;748.33;76.60;;;;;;;;;;6066534;23;20795;-90
2023/12/04 06:35:21;;;;;;;731.90;73.80;;;;;;;;;;6069412;23;20115;-90
2023/12/04 06:37:53;;;;;;;744.53;75.93;;;;;;;;;;6068435;23;21003;-89
2023/12/04 06:40:20;;;;;;;717.80;71.93;;;;;;;;;;6075515;23;20032;-90
2023/12/04 06:42:47;;;;;;;775.85;78.90;;;;;;;;;;6071104;23;20789;-89
2023/12/04 06:45:14;;;;;;;779.40;78.90;;;;;;;;;;6023619;23;20035;-90
2023/12/04 06:47:43;;;;;;;905.17;93.63;;;;;;;;;;6046666;23;20040;-90
2023/12/04 06:50:09;;;;;;;534.63;55.88;;;;;;;;;;6057954;23;20047;-90
2023/12/04 06:52:36;;;;;;;617.25;65.90;;;;;;;;;;6074265;23;20979;-89
2023/12/04 06:55:02;;;;;;;723.42;75.03;;;;;;;;;;6066175;23;20092;-90
2023/12/04 06:57:29;;;;;;;748.00;77.13;;;;;;;;;;6082789;23;20051;-90
2023/12/04 06:59:56;;;;;;;763.20;78.07;;;;;;;;;;6067559;23;20120;-90
2023/12/04 07:02:22;;;;;;;780.10;81.20;;;;;;;;;;6063854;23;20024;-90
2023/12/04 07:04:49;;;;;;;793.58;80.80;;;;;;;;;;6066962;23;21071;-90
2023/12/04 07:07:16;;;;;;;776.65;72.57;;;;;;;;;;6064109;23;20943;-90
2023/12/04 07:09:42;;;;;;;744.72;74.43;;;;;;;;;;6062569;23;20309;-91
2023/12/04 07:12:09;;;;;;;802.75;82.53;;;;;;;;;;6062588;23;20292;-90
2023/12/04 07:14:36;;;;;;;802.08;82.10;;;;;;;;;;6064963;23;20024;-90
2023/12/04 07:17:03;;;;;;;669.65;66.20;;;;;;;;;;6072009;23;20835;-89
2023/12/04 07:19:32;;;;;;;730.33;73.72;;;;;;;;;;6078881;23;20111;-89
2023/12/04 07:21:59;;;;;;;761.67;77.65;;;;;;;;;;6064639;23;21039;-90
2023/12/04 07:24:26;;;;;;;767.35;77.72;;;;;;;;;;6067205;23;20023;-91
2023/12/04 07:26:53;;;;;;;783.50;79.20;;;;;;;;;;6064141;23;20020;-90
2023/12/04 07:29:20;;;;;;;779.35;79.97;;;;;;;;;;6062831;23;20024;-90
2023/12/04 07:31:47;;;;;;;773.55;78.75;;;;;;;;;;6060501;23;20032;-89
2023/12/04 07:34:14;;;;;;;792.40;78.97;;;;;;;;;;6061707;23;21105;-89
2023/12/04 07:36:41;;;;;;;787.50;80.68;;;;;;;;;;6070907;23;20948;-90
2023/12/04 07:39:08;;;;;;;764.90;78.43;;;;;;;;;;6064001;23;20127;-90
2023/12/04 07:41:35;;;;;;;832.42;85.78;;;;;;;;;;6063119;23;20021;-90
2023/12/04 07:44:03;;;;;;;774.75;80.50;;;;;;;;;;6061599;23;20017;-91
2023/12/04 07:46:29;;;;;;;760.42;78.03;;;;;;;;;;6064519;23;20952;-90
2023/12/04 07:48:56;;;;;;;793.80;80.57;;;;;;;;;;6062885;23;21023;-90
2023/12/04 07:51:23;;;;;;;749.70;76.43;;;;;;;;;;6064343;23;20047;-90
2023/12/04 07:53:50;;;;;;;735.83;75.40;;;;;;;;;;6063622;23;20017;-90
2023/12/04 07:56:16;;;;;;;732.17;75.80;;;;;;;;;;6073385;23;21020;-90
2023/12/04 07:58:43;;;;;;;694.00;71.82;;;;;;;;;;6067887;23;20111;-91
2023/12/04 08:01:09;;;;;;;748.55;77.32;;;;;;;;;;6063011;23;20017;-90
2023/12/04 08:03:36;;;;;;;760.33;78.38;;;;;;;;;;6063683;23;21244;-91
2023/12/04 08:06:03;;;;;;;794.67;81.47;;;;;;;;;;6064782;23;20069;-90
2023/12/04 08:08:31;;;;;;;817.22;85.63;;;;;;;;;;6038570;23;20388;-90
2023/12/04 08:10:58;;;;;;;786.83;82.88;;;;;;;;;;6064316;23;20021;-90
2023/12/04 08:13:25;;;;;;;613.88;64.57;;;;;;;;;;6073989;23;20075;-89
2023/12/04 08:15:51;;;;;;;720.50;74.88;;;;;;;;;;6066769;23;20025;-90
2023/12/04 08:18:18;;;;;;;764.38;80.38;;;;;;;;;;6064531;23;20020;-90
2023/12/04 08:20:45;;;;;;;793.65;84.20;;;;;;;;;;6064557;23;20025;-89
2023/12/04 08:23:12;;;;;;;754.35;79.20;;;;;;;;;;6066642;23;20116;-90
2023/12/04 08:25:38;;;;;;;777.20;81.13;;;;;;;;;;6066099;23;20021;-89
2023/12/04 08:28:06;;;;;;;775.30;80.80;;;;;;;;;;6062681;23;20025;-90
2023/12/04 08:30:33;;;;;;;768.38;81.13;;;;;;;;;;6063594;23;20017;-90
2023/12/04 08:32:59;;;;;;;781.30;82.88;;;;;;;;;;6063841;23;20016;-90
2023/12/04 08:35:35;;;;;;;830.15;81.32;;;;;;;;;;6064657;23;20021;-90
2023/12/04 08:38:52;;;;;;;851.28;89.00;;;;;;;;;;6059118;23;20884;-89
2023/12/04 08:42:02;;;;;;;783.55;82.75;;;;;;;;;;5951744;23;20014;-91
2023/12/04 08:45:09;;;;;;;847.90;95.97;;;;;;;;;;6010746;23;20062;-90
2023/12/04 08:48:35;;;;;;;812.67;84.25;;;;;;;;;;5970639;23;20840;-90
2023/12/04 08:52:08;;;;;;;;;;;;;;;;;;;;;
2023/12/04 08:55:38;;;;;;;815.45;93.07;;;;;;;;;;5783595;23;21011;-91
2023/12/04 08:58:51;;;;;;;824.67;80.97;;;;;;;;;;5780739;24;21180;-90
2023/12/04 09:01:52;;;;;;;767.03;86.13;;;;;;;;;;5807943;24;20037;-90
2023/12/04 09:05:08;;;;;;;867.65;96.60;;;;;;;;;;5806415;24;20132;-89
2023/12/04 09:07:54;;;;;;;882.80;96.55;;;;;;;;;;5802103;24;20059;-90
2023/12/04 09:11:15;;;;;;;854.08;90.72;;;;;;;;;;5838084;23;20034;-89
2023/12/04 09:14:15;;;;;;;863.65;91.93;;;;;;;;;;6052836;23;20021;-90
2023/12/04 09:16:45;;;;;;;823.15;85.15;;;;;;;;;;6053103;23;20024;-89
2023/12/04 09:19:42;;;;;;;757.03;79.95;;;;;;;;;;6058041;23;20020;-89
2023/12/04 09:22:09;;;;;;;847.20;102.25;;;;;;;;;;6064303;23;20047;-90
2023/12/04 09:24:45;;;;;;;798.10;85.40;;;;;;;;;;6061976;23;20018;-89
2023/12/04 09:27:12;;;;;;;791.47;83.65;;;;;;;;;;6061676;23;20020;-90
2023/12/04 09:29:40;;;;;;;821.90;88.13;;;;;;;;;;6067904;23;20048;-89
2023/12/04 09:32:07;;;;;;;773.40;80.72;;;;;;;;;;6068445;23;20108;-90
2023/12/04 09:34:34;;;;;;;702.38;72.55;;;;;;;;;;6068916;23;20283;-90
2023/12/04 09:37:01;;;;;;;794.22;89.97;;;;;;;;;;6063149;23;20021;-89
2023/12/04 09:39:36;;;;;;;806.83;87.40;;;;;;;;;;6066378;23;20049;-90
2023/12/04 09:42:03;;;;;;;762.08;79.32;;;;;;;;;;6067218;23;20016;-90
2023/12/04 09:44:30;;;;;;;803.80;83.80;;;;;;;;;;6068112;23;20051;-89
2023/12/04 09:46:58;;;;;;;759.50;79.30;;;;;;;;;;6068015;23;20120;-89
2023/12/04 09:49:28;;;;;;;809.35;87.50;;;;;;;;;;6070687;23;20021;-90
2023/12/04 09:51:57;;;;;;;661.72;69.63;;;;;;;;;;6071720;23;20772;-89
2023/12/04 09:54:24;;;;;;;708.17;72.57;;;;;;;;;;6078725;23;20874;-87
2023/12/04 09:56:51;;;;;;;682.20;68.82;;;;;;;;;;6080759;23;20780;-89
2023/12/04 09:59:18;;;;;;;480.10;50.88;;;;;;;;;;6089646;23;20820;-89
2023/12/04 10:01:48;;;;;;;723.50;74.18;;;;;;;;;;6078511;23;20017;-90
2023/12/04 10:04:15;;;;;;;763.45;79.30;;;;;;;;;;6073928;23;20017;-90
2023/12/04 10:06:45;;;;;;;620.58;62.67;;;;;;;;;;6079670;23;20017;-89
2023/12/04 10:09:13;;;;;;;739.28;76.85;;;;;;;;;;6072159;23;20085;-90
2023/12/04 10:11:41;;;;;;;807.13;83.05;;;;;;;;;;6070430;23;20021;-90
2023/12/04 10:14:21;;;;;;;465.17;50.22;;;;;;;;;;6080428;23;20017;-90
2023/12/04 10:16:49;;;;;;;572.63;63.17;;;;;;;;;;6084840;23;20219;-89
2023/12/04 10:19:17;;;;;;;552.80;56.92;;;;;;;;;;6103039;23;20120;-90
2023/12/04 10:21:45;;;;;;;603.00;61.63;;;;;;;;;;6096184;23;20017;-89
2023/12/04 10:24:12;;;;;;;589.83;59.47;;;;;;;;;;6096880;23;20020;-89
2023/12/04 10:26:50;;;;;;;828.03;87.22;;;;;;;;;;6083702;23;20123;-89
2023/12/04 10:29:16;;;;;;;747.95;79.97;;;;;;;;;;6063644;23;20025;-89
2023/12/04 10:31:43;;;;;;;707.60;75.57;;;;;;;;;;6071801;23;20191;-89
2023/12/04 10:34:10;;;;;;;768.42;79.97;;;;;;;;;;6067984;23;20925;-90
2023/12/04 10:36:38;;;;;;;713.72;74.65;;;;;;;;;;6073582;23;20884;-87
2023/12/04 10:39:04;;;;;;;711.72;75.60;;;;;;;;;;6069912;23;20037;-89
2023/12/04 10:41:31;;;;;;;778.75;82.68;;;;;;;;;;6070482;23;20923;-89
2023/12/04 10:44:00;;;;;;;762.20;81.03;;;;;;;;;;6043605;23;20824;-89
2023/12/04 10:46:37;;;;;;;764.60;81.03;;;;;;;;;;6065493;23;20108;-89
2023/12/04 10:49:04;;;;;;;798.28;82.93;;;;;;;;;;6059217;23;20021;-90
2023/12/04 10:51:34;;;;;;;782.08;81.22;;;;;;;;;;6065088;23;20116;-90
2023/12/04 10:54:01;;;;;;;712.53;72.78;;;;;;;;;;6069649;23;20853;-89
2023/12/04 10:56:35;;;;;;;739.10;74.75;;;;;;;;;;6071388;23;20024;-89
2023/12/04 10:59:03;;;;;;;797.85;83.22;;;;;;;;;;6068471;23;20024;-91
2023/12/04 11:01:31;;;;;;;701.72;70.38;;;;;;;;;;6066439;23;21055;-89
2023/12/04 11:03:59;;;;;;;661.22;67.70;;;;;;;;;;6079163;23;20024;-90
2023/12/04 11:06:28;;;;;;;761.10;80.15;;;;;;;;;;6062313;23;20812;-90
2023/12/04 11:08:57;;;;;;;799.22;82.78;;;;;;;;;;6077754;23;20153;-90
2023/12/04 11:11:30;;;;;;;746.60;77.55;;;;;;;;;;6070622;23;20837;-90
2023/12/04 11:14:01;;;;;;;743.97;78.50;;;;;;;;;;6068013;23;20035;-89
2023/12/04 11:16:32;;;;;;;756.20;79.25;;;;;;;;;;6068261;23;21117;-90
2023/12/04 11:19:02;;;;;;;744.65;78.53;;;;;;;;;;6063887;23;20115;-89
2023/12/04 11:21:32;;;;;;;798.25;83.07;;;;;;;;;;6060727;23;20021;-90
2023/12/04 11:23:59;;;;;;;772.40;82.28;;;;;;;;;;6062173;23;20045;-90
2023/12/04 11:26:26;;;;;;;611.75;65.65;;;;;;;;;;6067023;23;20020;-90
2023/12/04 11:28:53;;;;;;;836.40;90.18;;;;;;;;;;6061284;23;20845;-89
2023/12/04 11:31:20;;;;;;;771.47;83.45;;;;;;;;;;6061122;23;20131;-91
2023/12/04 11:33:47;;;;;;;738.13;78.22;;;;;;;;;;6041758;23;20218;-89
2023/12/04 11:36:15;;;;;;;765.92;80.80;;;;;;;;;;6069195;23;20031;-91
2023/12/04 11:38:46;;;;;;;847.75;88.32;;;;;;;;;;6067879;23;20376;-91
2023/12/04 11:41:21;;;;;;;781.15;83.78;;;;;;;;;;6067921;23;20021;-89
2023/12/04 11:43:55;;;;;;;754.88;81.47;;;;;;;;;;6066516;23;20023;-90
2023/12/04 11:46:23;;;;;;;771.35;83.40;;;;;;;;;;6068321;23;20032;-90
2023/12/04 11:48:50;;;;;;;817.28;87.28;;;;;;;;;;6062785;23;20020;-90
2023/12/04 11:51:37;;;;;;;741.97;79.18;;;;;;;;;;6062808;23;21000;-90
2023/12/04 11:54:07;;;;;;;794.83;82.28;;;;;;;;;;6064078;23;20112;-90
2023/12/04 11:56:34;;;;;;;820.55;86.90;;;;;;;;;;6064264;23;20041;-89
2023/12/04 11:59:04;;;;;;;774.85;82.68;;;;;;;;;;6063592;23;20021;-89
2023/12/04 12:01:33;;;;;;;814.72;85.85;;;;;;;;;;6062785;23;20021;-90
2023/12/04 12:04:00;;;;;;;769.60;80.38;;;;;;;;;;6060112;23;20021;-91
2023/12/04 12:06:27;;;;;;;771.22;79.85;;;;;;;;;;6066201;23;20021;-90
2023/12/04 12:08:55;;;;;;;824.05;84.30;;;;;;;;;;6064591;23;20028;-90
2023/12/04 12:11:26;;;;;;;806.10;83.22;;;;;;;;;;6066211;23;20100;-90
2023/12/04 12:13:53;;;;;;;743.40;76.38;;;;;;;;;;6065745;23;20788;-89
2023/12/04 12:16:19;;;;;;;786.45;82.13;;;;;;;;;;6060430;23;20212;-90
2023/12/04 12:18:48;;;;;;;797.38;83.40;;;;;;;;;;6064480;23;20131;-89
2023/12/04 12:21:15;;;;;;;737.05;76.20;;;;;;;;;;6064689;23;20059;-90
2023/12/04 12:23:43;;;;;;;848.70;88.68;;;;;;;;;;6060124;23;20184;-90
2023/12/04 12:26:11;;;;;;;811.40;83.63;;;;;;;;;;6063321;23;20017;-90
2023/12/04 12:28:38;;;;;;;775.20;80.72;;;;;;;;;;6062400;23;20017;-90
2023/12/04 12:31:05;;;;;;;767.55;79.95;;;;;;;;;;6061535;23;21035;-90
2023/12/04 12:33:32;;;;;;;839.40;87.43;;;;;;;;;;6060059;23;20021;-89
2023/12/04 12:35:59;;;;;;;774.70;80.53;;;;;;;;;;6065602;23;20035;-90
2023/12/04 12:38:34;;;;;;;795.33;83.65;;;;;;;;;;6065083;23;20193;-90
2023/12/04 12:41:04;;;;;;;764.72;79.20;;;;;;;;;;6062796;23;20271;-90
2023/12/04 12:43:31;;;;;;;773.22;79.28;;;;;;;;;;6071293;23;20028;-90
2023/12/04 12:45:57;;;;;;;740.40;75.22;;;;;;;;;;6064642;23;20024;-90
2023/12/04 12:48:26;;;;;;;769.60;80.57;;;;;;;;;;6062978;23;20855;-89
2023/12/04 12:50:55;;;;;;;781.15;80.85;;;;;;;;;;6063419;23;20108;-89
2023/12/04 12:53:23;;;;;;;777.38;78.18;;;;;;;;;;6063213;23;20104;-89
2023/12/04 12:55:50;;;;;;;739.75;75.88;;;;;;;;;;6065371;23;20013;-88
2023/12/04 12:58:20;;;;;;;798.28;81.20;;;;;;;;;;6064541;23;20792;-89
2023/12/04 13:00:48;;;;;;;746.83;74.70;;;;;;;;;;6065769;23;20586;-90
2023/12/04 13:03:15;;;;;;;754.97;77.18;;;;;;;;;;6075497;23;20926;-90
2023/12/04 13:05:42;;;;;;;765.28;77.95;;;;;;;;;;6067040;23;20156;-90
2023/12/04 13:08:11;;;;;;;708.83;71.32;;;;;;;;;;6072948;23;20832;-90
2023/12/04 13:10:38;;;;;;;707.78;71.57;;;;;;;;;;6073482;23;20773;-90
2023/12/04 13:13:09;;;;;;;733.55;74.65;;;;;;;;;;6073182;23;20021;-90
2023/12/04 13:15:36;;;;;;;744.72;75.30;;;;;;;;;;6068464;23;20021;-90
2023/12/04 13:18:03;;;;;;;757.33;77.40;;;;;;;;;;6071184;23;20052;-91
2023/12/04 13:20:30;;;;;;;635.17;65.53;;;;;;;;;;6082901;23;20954;-89
2023/12/04 13:22:57;;;;;;;778.83;79.72;;;;;;;;;;6072958;23;20116;-89
2023/12/04 13:25:23;;;;;;;743.97;76.80;;;;;;;;;;6041988;23;20031;-89
2023/12/04 13:27:55;;;;;;;755.00;77.38;;;;;;;;;;6069978;23;20017;-90
2023/12/04 13:30:22;;;;;;;761.58;78.43;;;;;;;;;;6068879;23;20212;-89
2023/12/04 13:32:50;;;;;;;801.00;81.05;;;;;;;;;;6067624;23;20028;-90
2023/12/04 13:35:18;;;;;;;763.42;76.57;;;;;;;;;;6066367;23;20957;-87
2023/12/04 13:37:45;;;;;;;788.53;80.75;;;;;;;;;;6061802;23;20024;-89
2023/12/04 13:40:16;;;;;;;794.45;79.35;;;;;;;;;;6070890;23;20922;-88
2023/12/04 13:45:28;;;;;;;794.08;79.55;;;;;;;;;;6060388;23;20043;-86
2023/12/04 13:47:55;;;;;;;795.20;80.07;;;;;;;;;;6061658;23;20013;-87
2023/12/04 13:50:25;;;;;;;771.28;77.95;;;;;;;;;;6062517;23;20013;-85
2023/12/04 13:52:56;;;;;;;788.78;78.75;;;;;;;;;;6060475;23;20841;-86
2023/12/04 13:58:37;;;;;;;782.67;79.32;;;;;;;;;;6059910;23;20028;-86
2023/12/04 14:01:00;;;;;;;789.33;82.07;;;;;;;;;;6059151;23;20021;-86
2023/12/04 14:03:28;;;;;;;810.15;82.95;;;;;;;;;;6059218;23;20939;-86
2023/12/04 14:05:56;;;;;;;822.20;84.70;;;;;;;;;;6059638;23;21040;-87
2023/12/04 14:08:23;;;;;;;835.60;85.68;;;;;;;;;;6063581;23;20075;-86
2023/12/04 14:10:50;;;;;;;808.83;82.57;;;;;;;;;;6056800;23;20029;-86
2023/12/04 14:13:20;;;;;;;792.40;81.47;;;;;;;;;;6055819;23;20020;-86
2023/12/04 14:15:47;;;;;;;782.13;79.85;;;;;;;;;;6060273;23;20028;-86
2023/12/04 14:18:13;;;;;;;879.17;90.47;;;;;;;;;;6060762;23;21090;-86
2023/12/04 14:20:40;;;;;;;680.92;67.97;;;;;;;;;;6062974;23;20044;-87
2023/12/04 14:23:07;;;;;;;628.92;63.83;;;;;;;;;;6087208;23;20032;-87
2023/12/04 14:25:34;;;;;;;682.78;68.05;;;;;;;;;;6084320;23;20016;-86